»·PEaware :: SWA461 KSEA-KMFR

SWA461 :: KSEA-KMFR

FLIGHT INFORMATION

Flight Status: Arrived
Operator:
Southwest Airlines
More flights by this operator :: More flights under this callsign
Pilot: Jeff S. (20204)
Aircraft: BOEING 737-800
(B738)
More flights by this aircraft type
Origin: KSEA Seattle-Tacoma Intl
United States
Destination: KMFR Rogue Valley Intl-Medford
United States
More flights between these airports :: More routes between these airports
Route: ELMAA3 CVO EUG J126 OED
File this flight plan on PilotEdge
Remarks:
Altitude:
(Current/Filed)
37,000ft
Speed:
(Current/Filed)
470kts
Departed: 14-Nov-18 08:20 PM
Arrived: 14-Nov-18 09:16 PM
Distance/Time
Traveled:
306nm/0:55
Distance/Time
To Go:
Arrived

Flight Plot

Page will automatically refresh every two minutes.

Flight plan parsing failed; only flown route is shown


Map Options




Map Legend


Flown Route
Filed Route
Departure Airport
Arrival Airport
Navaid (VOR, NDB)
Fix

Horizontal Profiles

Position Reports

Time Latitude Longitude Heading Altitude Ground
Speed
14-Nov-18 20:05 47.445999 -122.304694 89 395ft 0kts
14-Nov-18 20:06 47.445999 -122.304694 89 395ft 0kts
14-Nov-18 20:07 47.445999 -122.304694 89 395ft 0kts
14-Nov-18 20:08 47.445999 -122.304694 89 395ft 0kts
14-Nov-18 20:09 47.445999 -122.304694 89 395ft 0kts
14-Nov-18 20:10 47.445999 -122.304694 89 395ft 0kts
14-Nov-18 20:11 47.445999 -122.304694 89 395ft 0kts
14-Nov-18 20:12 47.445999 -122.304695 89 395ft 0kts
14-Nov-18 20:13 47.445872 -122.305339 33 394ft 2kts
14-Nov-18 20:14 47.445638 -122.305420 359 393ft 0kts
14-Nov-18 20:15 47.445638 -122.305420 359 393ft 0kts
14-Nov-18 20:16 47.445638 -122.305420 359 393ft 0kts
14-Nov-18 20:17 47.445638 -122.305420 359 393ft 0kts
14-Nov-18 20:18 47.449024 -122.305624 342 404ft 11kts
14-Nov-18 20:19 47.456500 -122.306189 0 438ft 33kts
14-Nov-18 20:20 47.463586 -122.306311 320 417ft 8kts
14-Nov-18 20:21 47.463660 -122.309411 270 395ft 0kts
14-Nov-18 20:22 47.463630 -122.310327 254 390ft 19kts
14-Nov-18 20:23 47.454675 -122.311094 180 419ft 137kts
14-Nov-18 20:24 47.410828 -122.311188 174 2649ft 192kts
14-Nov-18 20:25 47.346656 -122.309833 183 4845ft 254kts
14-Nov-18 20:26 47.308941 -122.387042 258 8483ft 260kts
14-Nov-18 20:27 47.312527 -122.492191 295 11792ft 285kts
14-Nov-18 20:28 47.324764 -122.605877 265 14988ft 303kts
14-Nov-18 20:29 47.312828 -122.727873 264 17089ft 305kts
14-Nov-18 20:30 47.301144 -122.853718 265 20107ft 316kts
14-Nov-18 20:31 47.282637 -122.982772 252 22487ft 333kts
14-Nov-18 20:32 47.242282 -123.108569 249 23377ft 341kts
14-Nov-18 20:33 47.202515 -123.235553 249 23374ft 341kts
14-Nov-18 20:34 47.157331 -123.358010 228 23388ft 353kts
14-Nov-18 20:35 47.061815 -123.405696 186 23652ft 385kts
14-Nov-18 20:36 46.954478 -123.397327 182 25622ft 398kts
14-Nov-18 20:37 46.844917 -123.384559 181 27694ft 397kts
14-Nov-18 20:38 46.735756 -123.371727 182 29852ft 387kts
14-Nov-18 20:39 46.628236 -123.359274 182 31140ft 397kts
14-Nov-18 20:40 46.514290 -123.346315 182 31761ft 423kts
14-Nov-18 20:41 46.394022 -123.332629 182 32367ft 443kts
14-Nov-18 20:42 46.270750 -123.318524 182 32954ft 446kts
14-Nov-18 20:43 46.146456 -123.304373 182 33543ft 452kts
14-Nov-18 20:44 46.020861 -123.290134 182 34133ft 455kts
14-Nov-18 20:45 45.894394 -123.275864 182 34724ft 459kts
14-Nov-18 20:46 45.766292 -123.261619 182 35325ft 465kts
14-Nov-18 20:47 45.637457 -123.247210 182 35908ft 468kts
14-Nov-18 20:48 45.507124 -123.232708 181 36497ft 473kts
14-Nov-18 20:49 45.374700 -123.218050 181 37091ft 479kts
14-Nov-18 20:50 45.241149 -123.203324 181 37436ft 483kts
14-Nov-18 20:51 45.107684 -123.188638 181 37437ft 482kts
14-Nov-18 20:52 44.974272 -123.174063 180 37433ft 480kts
14-Nov-18 20:53 44.842433 -123.159711 180 37429ft 480kts
14-Nov-18 20:54 44.709696 -123.145318 180 37433ft 481kts
14-Nov-18 20:55 44.581472 -123.131320 181 37437ft 454kts
14-Nov-18 20:56 44.454891 -123.117761 181 37438ft 462kts
14-Nov-18 20:57 44.326200 -123.104010 181 37422ft 464kts
14-Nov-18 20:58 44.197862 -123.090319 181 37116ft 458kts
14-Nov-18 20:59 44.071596 -123.076856 181 33439ft 459kts
14-Nov-18 21:00 43.943793 -123.063377 180 29576ft 472kts
14-Nov-18 21:01 43.811789 -123.049557 179 26235ft 481kts
14-Nov-18 21:02 43.684235 -123.036079 179 24390ft 450kts
14-Nov-18 21:03 43.558566 -123.022943 179 21027ft 431kts
14-Nov-18 21:04 43.440397 -123.010625 179 18026ft 423kts
14-Nov-18 21:05 43.344709 -123.000727 178 15855ft 415kts
14-Nov-18 21:06 43.216262 -122.987461 178 12736ft 382kts
14-Nov-18 21:07 43.127446 -122.978362 178 10951ft 367kts
14-Nov-18 21:08 43.029363 -122.968253 178 10129ft 320kts
14-Nov-18 21:09 42.949336 -122.960064 177 10012ft 288kts
14-Nov-18 21:10 42.869490 -122.962264 190 9768ft 289kts
14-Nov-18 21:11 42.794351 -122.980341 191 8554ft 258kts
14-Nov-18 21:12 42.726551 -122.996709 190 7523ft 239kts
14-Nov-18 21:13 42.662750 -123.012107 190 7081ft 232kts
14-Nov-18 21:14 42.598713 -122.993341 159 6676ft 263kts
14-Nov-18 21:15 42.532905 -122.958930 156 5477ft 245kts
14-Nov-18 21:16 42.477778 -122.928043 162 4531ft 188kts
14-Nov-18 21:17 42.429803 -122.901794 159 2546ft 173kts
14-Nov-18 21:18 42.388171 -122.880160 158 1393ft 156kts
14-Nov-18 21:19 42.366398 -122.868776 158 1329ft 31kts
14-Nov-18 21:20 42.364816 -122.869548 338 1327ft 20kts
14-Nov-18 21:21 42.368962 -122.871982 293 1322ft 11kts
14-Nov-18 21:22 42.368985 -122.873486 248 1320ft 0kts

Navigation Log

Ident Type
Flight plan parsing failed, navigation log unavailable